sensor_id;sensor_type;location;lat;lon;timestamp;P1;durP1;ratioP1;P2;durP2;ratioP2
46288;SDS011;63105;46.158;14.604;2023-04-24T00:01:38;5.10;;;3.65;;
46288;SDS011;63105;46.158;14.604;2023-04-24T00:04:04;4.75;;;3.40;;
46288;SDS011;63105;46.158;14.604;2023-04-24T00:06:30;5.40;;;3.58;;
46288;SDS011;63105;46.158;14.604;2023-04-24T00:09:02;5.43;;;3.65;;
46288;SDS011;63105;46.158;14.604;2023-04-24T00:11:27;5.55;;;3.50;;
46288;SDS011;63105;46.158;14.604;2023-04-24T00:13:52;5.45;;;3.60;;
46288;SDS011;63105;46.158;14.604;2023-04-24T00:16:18;5.75;;;3.92;;
46288;SDS011;63105;46.158;14.604;2023-04-24T00:18:43;6.65;;;4.65;;
46288;SDS011;63105;46.158;14.604;2023-04-24T00:21:10;5.03;;;3.78;;
46288;SDS011;63105;46.158;14.604;2023-04-24T00:23:35;6.18;;;4.32;;
46288;SDS011;63105;46.158;14.604;2023-04-24T00:26:00;5.63;;;3.90;;
46288;SDS011;63105;46.158;14.604;2023-04-24T00:28:25;5.18;;;3.80;;
46288;SDS011;63105;46.158;14.604;2023-04-24T00:30:51;5.03;;;3.70;;
46288;SDS011;63105;46.158;14.604;2023-04-24T00:33:16;5.22;;;3.75;;
46288;SDS011;63105;46.158;14.604;2023-04-24T00:35:41;5.20;;;3.80;;
46288;SDS011;63105;46.158;14.604;2023-04-24T00:38:06;5.97;;;3.88;;
46288;SDS011;63105;46.158;14.604;2023-04-24T00:40:32;5.28;;;3.63;;
46288;SDS011;63105;46.158;14.604;2023-04-24T00:42:57;4.88;;;3.50;;
46288;SDS011;63105;46.158;14.604;2023-04-24T00:45:22;4.57;;;3.40;;
46288;SDS011;63105;46.158;14.604;2023-04-24T00:47:48;5.30;;;3.58;;
46288;SDS011;63105;46.158;14.604;2023-04-24T00:50:14;5.07;;;3.78;;
46288;SDS011;63105;46.158;14.604;2023-04-24T00:52:40;5.13;;;3.85;;
46288;SDS011;63105;46.158;14.604;2023-04-24T00:55:05;6.00;;;3.83;;
46288;SDS011;63105;46.158;14.604;2023-04-24T00:57:31;4.97;;;3.72;;
46288;SDS011;63105;46.158;14.604;2023-04-24T00:59:56;5.32;;;3.70;;
46288;SDS011;63105;46.158;14.604;2023-04-24T01:02:22;6.18;;;3.72;;
46288;SDS011;63105;46.158;14.604;2023-04-24T01:04:49;4.82;;;3.63;;
46288;SDS011;63105;46.158;14.604;2023-04-24T01:07:14;5.45;;;3.85;;
46288;SDS011;63105;46.158;14.604;2023-04-24T01:09:40;5.22;;;3.70;;
46288;SDS011;63105;46.158;14.604;2023-04-24T01:12:08;5.82;;;3.67;;
46288;SDS011;63105;46.158;14.604;2023-04-24T01:14:34;4.78;;;3.42;;
46288;SDS011;63105;46.158;14.604;2023-04-24T01:16:59;5.25;;;3.58;;
46288;SDS011;63105;46.158;14.604;2023-04-24T01:19:25;5.50;;;3.97;;
46288;SDS011;63105;46.158;14.604;2023-04-24T01:21:50;5.25;;;3.30;;
46288;SDS011;63105;46.158;14.604;2023-04-24T01:24:18;5.10;;;3.67;;
46288;SDS011;63105;46.158;14.604;2023-04-24T01:26:44;6.88;;;4.88;;
46288;SDS011;63105;46.158;14.604;2023-04-24T01:29:10;7.10;;;4.72;;
46288;SDS011;63105;46.158;14.604;2023-04-24T01:31:35;5.40;;;3.58;;
46288;SDS011;63105;46.158;14.604;2023-04-24T01:34:01;5.45;;;3.38;;
46288;SDS011;63105;46.158;14.604;2023-04-24T01:36:27;5.13;;;3.75;;
46288;SDS011;63105;46.158;14.604;2023-04-24T01:38:53;4.95;;;3.53;;
46288;SDS011;63105;46.158;14.604;2023-04-24T01:41:18;5.93;;;4.25;;
46288;SDS011;63105;46.158;14.604;2023-04-24T01:43:45;5.43;;;4.10;;
46288;SDS011;63105;46.158;14.604;2023-04-24T01:46:10;4.93;;;3.78;;
46288;SDS011;63105;46.158;14.604;2023-04-24T01:48:35;5.85;;;3.92;;
46288;SDS011;63105;46.158;14.604;2023-04-24T01:51:01;4.93;;;3.75;;
46288;SDS011;63105;46.158;14.604;2023-04-24T01:53:26;5.53;;;3.75;;
46288;SDS011;63105;46.158;14.604;2023-04-24T01:55:52;5.72;;;3.72;;
46288;SDS011;63105;46.158;14.604;2023-04-24T01:58:17;5.32;;;3.70;;
46288;SDS011;63105;46.158;14.604;2023-04-24T02:00:42;4.88;;;3.53;;
46288;SDS011;63105;46.158;14.604;2023-04-24T02:03:07;5.88;;;3.78;;
46288;SDS011;63105;46.158;14.604;2023-04-24T02:05:33;5.93;;;3.83;;
46288;SDS011;63105;46.158;14.604;2023-04-24T02:07:58;5.30;;;3.92;;
46288;SDS011;63105;46.158;14.604;2023-04-24T02:10:23;5.57;;;3.97;;
46288;SDS011;63105;46.158;14.604;2023-04-24T02:12:50;5.32;;;3.78;;
46288;SDS011;63105;46.158;14.604;2023-04-24T02:15:15;5.60;;;3.80;;
46288;SDS011;63105;46.158;14.604;2023-04-24T02:17:41;5.25;;;3.78;;
46288;SDS011;63105;46.158;14.604;2023-04-24T02:20:06;4.78;;;3.40;;
46288;SDS011;63105;46.158;14.604;2023-04-24T02:22:31;4.57;;;3.30;;
46288;SDS011;63105;46.158;14.604;2023-04-24T02:24:57;5.13;;;3.50;;
46288;SDS011;63105;46.158;14.604;2023-04-24T02:27:22;5.32;;;3.78;;
46288;SDS011;63105;46.158;14.604;2023-04-24T02:29:47;4.72;;;3.38;;
46288;SDS011;63105;46.158;14.604;2023-04-24T02:32:12;4.95;;;3.60;;
46288;SDS011;63105;46.158;14.604;2023-04-24T02:34:40;5.53;;;3.83;;
46288;SDS011;63105;46.158;14.604;2023-04-24T02:37:05;5.13;;;3.60;;
46288;SDS011;63105;46.158;14.604;2023-04-24T02:39:30;4.72;;;3.47;;
46288;SDS011;63105;46.158;14.604;2023-04-24T02:41:56;5.45;;;3.20;;
46288;SDS011;63105;46.158;14.604;2023-04-24T02:44:21;4.93;;;3.50;;
46288;SDS011;63105;46.158;14.604;2023-04-24T02:46:47;4.88;;;3.53;;
46288;SDS011;63105;46.158;14.604;2023-04-24T02:49:12;5.47;;;3.63;;
46288;SDS011;63105;46.158;14.604;2023-04-24T02:51:38;4.68;;;3.17;;
46288;SDS011;63105;46.158;14.604;2023-04-24T02:54:06;4.93;;;3.30;;
46288;SDS011;63105;46.158;14.604;2023-04-24T02:56:31;5.50;;;3.55;;
46288;SDS011;63105;46.158;14.604;2023-04-24T02:58:56;4.63;;;3.28;;
46288;SDS011;63105;46.158;14.604;2023-04-24T03:01:21;5.10;;;3.67;;
46288;SDS011;63105;46.158;14.604;2023-04-24T03:03:46;5.47;;;3.60;;
46288;SDS011;63105;46.158;14.604;2023-04-24T03:06:12;5.28;;;3.78;;
46288;SDS011;63105;46.158;14.604;2023-04-24T03:08:37;6.38;;;4.28;;
46288;SDS011;63105;46.158;14.604;2023-04-24T03:11:02;6.00;;;3.65;;
46288;SDS011;63105;46.158;14.604;2023-04-24T03:13:27;5.45;;;3.65;;
46288;SDS011;63105;46.158;14.604;2023-04-24T03:15:53;4.80;;;3.45;;
46288;SDS011;63105;46.158;14.604;2023-04-24T03:18:19;4.97;;;3.35;;
46288;SDS011;63105;46.158;14.604;2023-04-24T03:20:47;5.13;;;3.55;;
46288;SDS011;63105;46.158;14.604;2023-04-24T03:23:13;4.03;;;3.05;;
46288;SDS011;63105;46.158;14.604;2023-04-24T03:25:38;4.78;;;3.33;;
46288;SDS011;63105;46.158;14.604;2023-04-24T03:28:03;4.75;;;3.25;;
46288;SDS011;63105;46.158;14.604;2023-04-24T03:30:29;5.43;;;3.30;;
46288;SDS011;63105;46.158;14.604;2023-04-24T03:32:54;4.80;;;3.20;;
46288;SDS011;63105;46.158;14.604;2023-04-24T03:35:19;5.47;;;3.75;;
46288;SDS011;63105;46.158;14.604;2023-04-24T03:37:46;4.97;;;3.50;;
46288;SDS011;63105;46.158;14.604;2023-04-24T03:40:11;4.63;;;3.20;;
46288;SDS011;63105;46.158;14.604;2023-04-24T03:42:36;4.78;;;3.45;;
46288;SDS011;63105;46.158;14.604;2023-04-24T03:45:01;4.72;;;3.30;;
46288;SDS011;63105;46.158;14.604;2023-04-24T03:47:27;5.03;;;3.40;;
46288;SDS011;63105;46.158;14.604;2023-04-24T03:49:52;5.55;;;3.75;;
46288;SDS011;63105;46.158;14.604;2023-04-24T03:52:18;5.30;;;3.70;;
46288;SDS011;63105;46.158;14.604;2023-04-24T03:54:44;6.07;;;3.15;;
46288;SDS011;63105;46.158;14.604;2023-04-24T03:57:09;4.82;;;3.45;;
46288;SDS011;63105;46.158;14.604;2023-04-24T03:59:34;5.05;;;3.30;;
46288;SDS011;63105;46.158;14.604;2023-04-24T04:01:59;4.88;;;3.17;;
46288;SDS011;63105;46.158;14.604;2023-04-24T04:04:24;5.15;;;3.35;;
46288;SDS011;63105;46.158;14.604;2023-04-24T04:06:50;5.72;;;3.90;;
46288;SDS011;63105;46.158;14.604;2023-04-24T04:09:16;7.60;;;4.43;;
46288;SDS011;63105;46.158;14.604;2023-04-24T04:11:41;6.70;;;4.28;;
46288;SDS011;63105;46.158;14.604;2023-04-24T04:14:06;6.00;;;3.70;;
46288;SDS011;63105;46.158;14.604;2023-04-24T04:16:31;5.22;;;3.95;;
46288;SDS011;63105;46.158;14.604;2023-04-24T04:18:57;5.80;;;3.88;;
46288;SDS011;63105;46.158;14.604;2023-04-24T04:21:22;4.93;;;3.50;;
46288;SDS011;63105;46.158;14.604;2023-04-24T04:23:47;6.45;;;3.90;;
46288;SDS011;63105;46.158;14.604;2023-04-24T04:26:13;5.40;;;3.65;;
46288;SDS011;63105;46.158;14.604;2023-04-24T04:28:38;5.07;;;3.50;;
46288;SDS011;63105;46.158;14.604;2023-04-24T04:31:04;5.35;;;3.58;;
46288;SDS011;63105;46.158;14.604;2023-04-24T04:33:29;6.40;;;4.00;;
46288;SDS011;63105;46.158;14.604;2023-04-24T04:35:54;5.90;;;3.95;;
46288;SDS011;63105;46.158;14.604;2023-04-24T04:38:21;4.95;;;3.28;;
46288;SDS011;63105;46.158;14.604;2023-04-24T04:40:47;5.63;;;3.70;;
46288;SDS011;63105;46.158;14.604;2023-04-24T04:43:12;4.93;;;3.42;;
46288;SDS011;63105;46.158;14.604;2023-04-24T04:45:39;6.78;;;4.03;;
46288;SDS011;63105;46.158;14.604;2023-04-24T04:48:06;5.47;;;3.78;;
46288;SDS011;63105;46.158;14.604;2023-04-24T04:50:33;5.75;;;3.80;;
46288;SDS011;63105;46.158;14.604;2023-04-24T04:52:58;5.72;;;3.90;;
46288;SDS011;63105;46.158;14.604;2023-04-24T04:55:23;5.40;;;3.78;;
46288;SDS011;63105;46.158;14.604;2023-04-24T04:57:48;5.22;;;3.80;;
46288;SDS011;63105;46.158;14.604;2023-04-24T05:00:14;6.60;;;3.75;;
46288;SDS011;63105;46.158;14.604;2023-04-24T05:02:39;6.53;;;4.20;;
46288;SDS011;63105;46.158;14.604;2023-04-24T05:05:05;5.72;;;3.88;;
46288;SDS011;63105;46.158;14.604;2023-04-24T05:07:30;5.25;;;3.47;;
46288;SDS011;63105;46.158;14.604;2023-04-24T05:09:56;6.43;;;3.90;;
46288;SDS011;63105;46.158;14.604;2023-04-24T05:12:21;5.13;;;3.63;;
46288;SDS011;63105;46.158;14.604;2023-04-24T05:14:46;6.80;;;3.78;;
46288;SDS011;63105;46.158;14.604;2023-04-24T05:17:11;6.50;;;4.13;;
46288;SDS011;63105;46.158;14.604;2023-04-24T05:19:36;5.93;;;4.45;;
46288;SDS011;63105;46.158;14.604;2023-04-24T05:22:03;6.00;;;4.20;;
46288;SDS011;63105;46.158;14.604;2023-04-24T05:24:30;5.85;;;4.22;;
46288;SDS011;63105;46.158;14.604;2023-04-24T05:26:55;6.15;;;4.38;;
46288;SDS011;63105;46.158;14.604;2023-04-24T05:29:22;5.65;;;3.85;;
46288;SDS011;63105;46.158;14.604;2023-04-24T05:31:47;6.45;;;4.10;;
46288;SDS011;63105;46.158;14.604;2023-04-24T05:34:12;5.53;;;4.18;;
46288;SDS011;63105;46.158;14.604;2023-04-24T05:36:37;6.68;;;4.53;;
46288;SDS011;63105;46.158;14.604;2023-04-24T05:39:03;6.78;;;4.05;;
46288;SDS011;63105;46.158;14.604;2023-04-24T05:41:30;5.50;;;3.83;;
46288;SDS011;63105;46.158;14.604;2023-04-24T05:43:55;6.85;;;4.40;;
46288;SDS011;63105;46.158;14.604;2023-04-24T05:46:20;6.28;;;4.47;;
46288;SDS011;63105;46.158;14.604;2023-04-24T05:48:45;5.97;;;4.60;;
46288;SDS011;63105;46.158;14.604;2023-04-24T05:51:11;6.28;;;4.20;;
46288;SDS011;63105;46.158;14.604;2023-04-24T05:53:36;6.55;;;4.50;;
46288;SDS011;63105;46.158;14.604;2023-04-24T05:56:01;5.80;;;4.20;;
46288;SDS011;63105;46.158;14.604;2023-04-24T05:58:26;5.82;;;4.10;;
46288;SDS011;63105;46.158;14.604;2023-04-24T06:00:51;5.63;;;4.32;;
46288;SDS011;63105;46.158;14.604;2023-04-24T06:03:17;6.35;;;4.40;;
46288;SDS011;63105;46.158;14.604;2023-04-24T06:05:42;5.28;;;3.85;;
46288;SDS011;63105;46.158;14.604;2023-04-24T06:08:07;6.32;;;4.68;;
46288;SDS011;63105;46.158;14.604;2023-04-24T06:10:32;6.18;;;4.18;;
46288;SDS011;63105;46.158;14.604;2023-04-24T06:12:58;7.22;;;4.70;;
46288;SDS011;63105;46.158;14.604;2023-04-24T06:15:26;6.28;;;4.25;;
46288;SDS011;63105;46.158;14.604;2023-04-24T06:17:51;5.45;;;4.13;;
46288;SDS011;63105;46.158;14.604;2023-04-24T06:20:16;7.18;;;5.40;;
46288;SDS011;63105;46.158;14.604;2023-04-24T06:22:42;8.88;;;5.40;;
46288;SDS011;63105;46.158;14.604;2023-04-24T06:25:07;6.25;;;4.82;;
46288;SDS011;63105;46.158;14.604;2023-04-24T06:27:32;6.88;;;5.05;;
46288;SDS011;63105;46.158;14.604;2023-04-24T06:29:58;6.10;;;4.82;;
46288;SDS011;63105;46.158;14.604;2023-04-24T06:32:23;6.72;;;4.72;;
46288;SDS011;63105;46.158;14.604;2023-04-24T06:34:50;6.40;;;4.75;;
46288;SDS011;63105;46.158;14.604;2023-04-24T06:37:15;6.63;;;4.47;;
46288;SDS011;63105;46.158;14.604;2023-04-24T06:39:41;6.90;;;4.43;;
46288;SDS011;63105;46.158;14.604;2023-04-24T06:42:06;5.18;;;4.20;;
46288;SDS011;63105;46.158;14.604;2023-04-24T06:44:33;6.20;;;4.55;;
46288;SDS011;63105;46.158;14.604;2023-04-24T06:47:02;8.32;;;5.63;;
46288;SDS011;63105;46.158;14.604;2023-04-24T06:49:27;9.32;;;6.07;;
46288;SDS011;63105;46.158;14.604;2023-04-24T06:51:53;7.43;;;5.70;;
46288;SDS011;63105;46.158;14.604;2023-04-24T06:54:18;7.50;;;5.75;;
46288;SDS011;63105;46.158;14.604;2023-04-24T06:56:43;7.40;;;5.50;;
46288;SDS011;63105;46.158;14.604;2023-04-24T06:59:10;6.75;;;4.93;;
46288;SDS011;63105;46.158;14.604;2023-04-24T07:01:35;6.15;;;4.53;;
46288;SDS011;63105;46.158;14.604;2023-04-24T07:04:01;7.40;;;5.55;;
46288;SDS011;63105;46.158;14.604;2023-04-24T07:06:26;7.85;;;5.90;;
46288;SDS011;63105;46.158;14.604;2023-04-24T07:08:52;7.50;;;5.28;;
46288;SDS011;63105;46.158;14.604;2023-04-24T07:11:17;6.47;;;4.70;;
46288;SDS011;63105;46.158;14.604;2023-04-24T07:13:42;6.18;;;4.55;;
46288;SDS011;63105;46.158;14.604;2023-04-24T07:16:10;6.15;;;3.92;;
46288;SDS011;63105;46.158;14.604;2023-04-24T07:18:35;6.88;;;5.30;;
46288;SDS011;63105;46.158;14.604;2023-04-24T07:21:01;9.60;;;6.32;;
46288;SDS011;63105;46.158;14.604;2023-04-24T07:23:26;9.32;;;6.45;;
46288;SDS011;63105;46.158;14.604;2023-04-24T07:25:52;7.93;;;5.93;;
46288;SDS011;63105;46.158;14.604;2023-04-24T07:28:17;9.50;;;6.38;;
46288;SDS011;63105;46.158;14.604;2023-04-24T07:30:43;7.30;;;5.72;;
46288;SDS011;63105;46.158;14.604;2023-04-24T07:33:08;7.22;;;5.45;;
46288;SDS011;63105;46.158;14.604;2023-04-24T07:35:36;6.55;;;5.65;;
46288;SDS011;63105;46.158;14.604;2023-04-24T07:38:01;6.75;;;5.00;;
46288;SDS011;63105;46.158;14.604;2023-04-24T07:40:26;7.07;;;4.78;;
46288;SDS011;63105;46.158;14.604;2023-04-24T07:42:51;5.57;;;4.30;;
46288;SDS011;63105;46.158;14.604;2023-04-24T07:45:17;5.80;;;4.40;;
46288;SDS011;63105;46.158;14.604;2023-04-24T07:47:42;6.32;;;4.43;;
46288;SDS011;63105;46.158;14.604;2023-04-24T07:50:11;6.90;;;4.55;;
46288;SDS011;63105;46.158;14.604;2023-04-24T07:52:36;5.75;;;4.60;;
46288;SDS011;63105;46.158;14.604;2023-04-24T07:55:02;6.43;;;5.00;;
46288;SDS011;63105;46.158;14.604;2023-04-24T07:57:27;7.70;;;5.20;;
46288;SDS011;63105;46.158;14.604;2023-04-24T07:59:53;10.35;;;6.47;;
46288;SDS011;63105;46.158;14.604;2023-04-24T08:02:18;8.18;;;6.28;;
46288;SDS011;63105;46.158;14.604;2023-04-24T08:04:43;9.25;;;6.13;;
46288;SDS011;63105;46.158;14.604;2023-04-24T08:07:08;8.50;;;6.18;;
46288;SDS011;63105;46.158;14.604;2023-04-24T08:09:34;6.95;;;5.10;;
46288;SDS011;63105;46.158;14.604;2023-04-24T08:11:59;7.20;;;5.25;;
46288;SDS011;63105;46.158;14.604;2023-04-24T08:14:24;6.50;;;4.97;;
46288;SDS011;63105;46.158;14.604;2023-04-24T08:16:50;7.22;;;5.00;;
46288;SDS011;63105;46.158;14.604;2023-04-24T08:19:15;6.40;;;5.32;;
46288;SDS011;63105;46.158;14.604;2023-04-24T08:21:40;7.40;;;5.72;;
46288;SDS011;63105;46.158;14.604;2023-04-24T08:24:05;7.30;;;5.32;;
46288;SDS011;63105;46.158;14.604;2023-04-24T08:26:32;7.47;;;5.45;;
46288;SDS011;63105;46.158;14.604;2023-04-24T08:28:58;7.45;;;5.13;;
46288;SDS011;63105;46.158;14.604;2023-04-24T08:31:23;7.65;;;5.32;;
46288;SDS011;63105;46.158;14.604;2023-04-24T08:33:50;7.90;;;5.80;;
46288;SDS011;63105;46.158;14.604;2023-04-24T08:36:16;7.65;;;5.93;;
46288;SDS011;63105;46.158;14.604;2023-04-24T08:38:41;7.78;;;5.97;;
46288;SDS011;63105;46.158;14.604;2023-04-24T08:41:07;6.35;;;5.13;;
46288;SDS011;63105;46.158;14.604;2023-04-24T08:43:33;6.53;;;5.03;;
46288;SDS011;63105;46.158;14.604;2023-04-24T08:45:59;7.25;;;5.10;;
46288;SDS011;63105;46.158;14.604;2023-04-24T08:48:25;7.40;;;5.30;;
46288;SDS011;63105;46.158;14.604;2023-04-24T08:50:50;7.45;;;5.55;;
46288;SDS011;63105;46.158;14.604;2023-04-24T08:53:16;6.85;;;5.63;;
46288;SDS011;63105;46.158;14.604;2023-04-24T08:55:41;6.75;;;5.40;;
46288;SDS011;63105;46.158;14.604;2023-04-24T08:58:08;8.00;;;5.93;;
46288;SDS011;63105;46.158;14.604;2023-04-24T09:00:34;9.80;;;6.70;;
46288;SDS011;63105;46.158;14.604;2023-04-24T09:03:00;8.00;;;5.70;;
46288;SDS011;63105;46.158;14.604;2023-04-24T09:05:26;8.00;;;5.18;;
46288;SDS011;63105;46.158;14.604;2023-04-24T09:07:55;7.50;;;5.57;;
46288;SDS011;63105;46.158;14.604;2023-04-24T09:10:22;7.53;;;5.50;;
46288;SDS011;63105;46.158;14.604;2023-04-24T09:12:47;7.75;;;5.82;;
46288;SDS011;63105;46.158;14.604;2023-04-24T09:15:12;7.30;;;5.65;;
46288;SDS011;63105;46.158;14.604;2023-04-24T09:17:38;7.40;;;5.45;;
46288;SDS011;63105;46.158;14.604;2023-04-24T09:20:03;8.43;;;5.70;;
46288;SDS011;63105;46.158;14.604;2023-04-24T09:22:29;6.70;;;5.03;;
46288;SDS011;63105;46.158;14.604;2023-04-24T09:25:05;9.32;;;5.60;;
46288;SDS011;63105;46.158;14.604;2023-04-24T09:27:31;7.45;;;5.38;;
46288;SDS011;63105;46.158;14.604;2023-04-24T09:29:57;6.97;;;5.43;;
46288;SDS011;63105;46.158;14.604;2023-04-24T09:32:22;7.85;;;5.28;;
46288;SDS011;63105;46.158;14.604;2023-04-24T09:34:50;10.98;;;7.28;;
46288;SDS011;63105;46.158;14.604;2023-04-24T09:37:27;9.07;;;6.70;;
46288;SDS011;63105;46.158;14.604;2023-04-24T09:42:33;7.88;;;5.68;;
46288;SDS011;63105;46.158;14.604;2023-04-24T09:44:58;8.13;;;5.43;;
46288;SDS011;63105;46.158;14.604;2023-04-24T09:47:23;8.05;;;5.55;;
46288;SDS011;63105;46.158;14.604;2023-04-24T09:49:48;7.47;;;5.43;;
46288;SDS011;63105;46.158;14.604;2023-04-24T09:52:14;7.80;;;4.97;;
46288;SDS011;63105;46.158;14.604;2023-04-24T09:54:40;7.07;;;4.65;;
46288;SDS011;63105;46.158;14.604;2023-04-24T09:57:07;10.15;;;6.88;;
46288;SDS011;63105;46.158;14.604;2023-04-24T09:59:32;9.20;;;7.05;;
46288;SDS011;63105;46.158;14.604;2023-04-24T10:01:58;8.02;;;5.75;;
46288;SDS011;63105;46.158;14.604;2023-04-24T10:04:25;7.40;;;4.57;;
46288;SDS011;63105;46.158;14.604;2023-04-24T10:06:51;5.82;;;3.85;;
46288;SDS011;63105;46.158;14.604;2023-04-24T10:09:17;6.57;;;4.15;;
46288;SDS011;63105;46.158;14.604;2023-04-24T10:11:44;6.72;;;4.10;;
46288;SDS011;63105;46.158;14.604;2023-04-24T10:14:13;5.93;;;4.20;;
46288;SDS011;63105;46.158;14.604;2023-04-24T10:16:39;7.22;;;4.63;;
46288;SDS011;63105;46.158;14.604;2023-04-24T10:19:05;6.80;;;4.00;;
46288;SDS011;63105;46.158;14.604;2023-04-24T10:21:31;5.60;;;3.72;;
46288;SDS011;63105;46.158;14.604;2023-04-24T10:23:56;5.63;;;3.70;;
46288;SDS011;63105;46.158;14.604;2023-04-24T10:26:22;6.07;;;3.40;;
46288;SDS011;63105;46.158;14.604;2023-04-24T10:28:48;5.97;;;4.05;;
46288;SDS011;63105;46.158;14.604;2023-04-24T10:31:14;5.63;;;3.70;;
46288;SDS011;63105;46.158;14.604;2023-04-24T10:33:42;4.60;;;3.40;;
46288;SDS011;63105;46.158;14.604;2023-04-24T10:36:11;6.47;;;3.83;;
46288;SDS011;63105;46.158;14.604;2023-04-24T10:38:38;5.68;;;3.47;;
46288;SDS011;63105;46.158;14.604;2023-04-24T10:41:11;5.72;;;3.53;;
46288;SDS011;63105;46.158;14.604;2023-04-24T10:43:45;7.30;;;3.67;;
46288;SDS011;63105;46.158;14.604;2023-04-24T10:46:16;6.38;;;3.45;;
46288;SDS011;63105;46.158;14.604;2023-04-24T10:48:42;5.57;;;3.78;;
46288;SDS011;63105;46.158;14.604;2023-04-24T10:51:10;6.43;;;3.90;;
46288;SDS011;63105;46.158;14.604;2023-04-24T10:53:35;6.07;;;3.65;;
46288;SDS011;63105;46.158;14.604;2023-04-24T10:56:07;5.93;;;3.83;;
46288;SDS011;63105;46.158;14.604;2023-04-24T10:58:41;6.82;;;3.83;;
46288;SDS011;63105;46.158;14.604;2023-04-24T11:01:10;5.25;;;3.75;;
46288;SDS011;63105;46.158;14.604;2023-04-24T11:03:51;6.30;;;3.97;;
46288;SDS011;63105;46.158;14.604;2023-04-24T11:06:20;6.60;;;3.63;;
46288;SDS011;63105;46.158;14.604;2023-04-24T11:08:53;5.53;;;3.80;;
46288;SDS011;63105;46.158;14.604;2023-04-24T11:11:23;5.35;;;3.63;;
46288;SDS011;63105;46.158;14.604;2023-04-24T11:16:25;6.10;;;3.70;;
46288;SDS011;63105;46.158;14.604;2023-04-24T11:18:51;5.65;;;3.63;;
46288;SDS011;63105;46.158;14.604;2023-04-24T11:21:19;5.05;;;3.22;;
46288;SDS011;63105;46.158;14.604;2023-04-24T11:23:45;5.38;;;3.30;;
46288;SDS011;63105;46.158;14.604;2023-04-24T11:26:21;6.35;;;4.60;;
46288;SDS011;63105;46.158;14.604;2023-04-24T11:28:48;10.45;;;5.80;;
46288;SDS011;63105;46.158;14.604;2023-04-24T11:34:03;12.63;;;7.45;;
46288;SDS011;63105;46.158;14.604;2023-04-24T11:36:31;10.38;;;6.22;;
46288;SDS011;63105;46.158;14.604;2023-04-24T11:38:56;9.60;;;5.57;;
46288;SDS011;63105;46.158;14.604;2023-04-24T11:41:21;10.32;;;6.00;;
46288;SDS011;63105;46.158;14.604;2023-04-24T11:43:47;8.30;;;5.00;;
46288;SDS011;63105;46.158;14.604;2023-04-24T11:46:16;7.55;;;4.57;;
46288;SDS011;63105;46.158;14.604;2023-04-24T11:48:44;10.02;;;5.07;;
46288;SDS011;63105;46.158;14.604;2023-04-24T11:51:11;13.15;;;6.53;;
46288;SDS011;63105;46.158;14.604;2023-04-24T11:53:36;13.13;;;6.90;;
46288;SDS011;63105;46.158;14.604;2023-04-24T11:56:03;9.75;;;6.13;;
46288;SDS011;63105;46.158;14.604;2023-04-24T11:58:28;7.70;;;5.00;;
46288;SDS011;63105;46.158;14.604;2023-04-24T12:00:56;8.43;;;4.85;;
46288;SDS011;63105;46.158;14.604;2023-04-24T12:03:23;6.53;;;4.53;;
46288;SDS011;63105;46.158;14.604;2023-04-24T12:05:48;8.05;;;5.10;;
46288;SDS011;63105;46.158;14.604;2023-04-24T12:08:26;7.90;;;4.55;;
46288;SDS011;63105;46.158;14.604;2023-04-24T12:10:52;7.20;;;4.72;;
46288;SDS011;63105;46.158;14.604;2023-04-24T12:13:17;8.85;;;5.55;;
46288;SDS011;63105;46.158;14.604;2023-04-24T12:15:42;8.48;;;5.47;;
46288;SDS011;63105;46.158;14.604;2023-04-24T12:18:08;6.28;;;4.60;;
46288;SDS011;63105;46.158;14.604;2023-04-24T12:20:36;7.10;;;5.10;;
46288;SDS011;63105;46.158;14.604;2023-04-24T12:23:01;8.10;;;5.70;;
46288;SDS011;63105;46.158;14.604;2023-04-24T12:25:31;7.30;;;5.28;;
46288;SDS011;63105;46.158;14.604;2023-04-24T12:30:27;9.65;;;5.93;;
46288;SDS011;63105;46.158;14.604;2023-04-24T12:32:53;10.52;;;5.63;;
46288;SDS011;63105;46.158;14.604;2023-04-24T12:35:20;9.48;;;5.90;;
46288;SDS011;63105;46.158;14.604;2023-04-24T12:37:46;9.13;;;5.75;;
46288;SDS011;63105;46.158;14.604;2023-04-24T12:40:11;10.23;;;7.60;;
46288;SDS011;63105;46.158;14.604;2023-04-24T12:45:08;8.48;;;5.93;;
46288;SDS011;63105;46.158;14.604;2023-04-24T12:47:34;8.82;;;6.07;;
46288;SDS011;63105;46.158;14.604;2023-04-24T12:49:59;8.00;;;5.72;;
46288;SDS011;63105;46.158;14.604;2023-04-24T12:52:25;6.88;;;5.20;;
46288;SDS011;63105;46.158;14.604;2023-04-24T12:54:52;6.20;;;4.85;;
46288;SDS011;63105;46.158;14.604;2023-04-24T12:57:18;7.35;;;5.20;;
46288;SDS011;63105;46.158;14.604;2023-04-24T12:59:43;7.10;;;5.22;;
46288;SDS011;63105;46.158;14.604;2023-04-24T13:02:08;7.88;;;5.57;;
46288;SDS011;63105;46.158;14.604;2023-04-24T13:04:35;7.65;;;5.28;;
46288;SDS011;63105;46.158;14.604;2023-04-24T13:07:00;7.03;;;4.43;;
46288;SDS011;63105;46.158;14.604;2023-04-24T13:09:25;7.88;;;5.40;;
46288;SDS011;63105;46.158;14.604;2023-04-24T13:11:50;7.80;;;5.18;;
46288;SDS011;63105;46.158;14.604;2023-04-24T13:14:16;7.38;;;4.50;;
46288;SDS011;63105;46.158;14.604;2023-04-24T13:16:41;6.30;;;4.45;;
46288;SDS011;63105;46.158;14.604;2023-04-24T13:19:06;6.88;;;4.32;;
46288;SDS011;63105;46.158;14.604;2023-04-24T13:21:31;6.07;;;3.75;;
46288;SDS011;63105;46.158;14.604;2023-04-24T13:23:57;6.40;;;4.15;;
46288;SDS011;63105;46.158;14.604;2023-04-24T13:26:22;5.68;;;3.67;;
46288;SDS011;63105;46.158;14.604;2023-04-24T13:28:48;6.18;;;3.83;;
46288;SDS011;63105;46.158;14.604;2023-04-24T13:31:13;6.85;;;4.65;;
46288;SDS011;63105;46.158;14.604;2023-04-24T13:33:38;6.25;;;4.40;;
46288;SDS011;63105;46.158;14.604;2023-04-24T13:36:04;5.93;;;4.03;;
46288;SDS011;63105;46.158;14.604;2023-04-24T13:38:29;5.90;;;3.88;;
46288;SDS011;63105;46.158;14.604;2023-04-24T13:40:54;4.95;;;2.90;;
46288;SDS011;63105;46.158;14.604;2023-04-24T13:43:19;4.13;;;2.60;;
46288;SDS011;63105;46.158;14.604;2023-04-24T13:45:45;6.03;;;2.95;;
46288;SDS011;63105;46.158;14.604;2023-04-24T13:48:10;4.47;;;2.60;;
46288;SDS011;63105;46.158;14.604;2023-04-24T13:50:35;4.70;;;2.65;;
46288;SDS011;63105;46.158;14.604;2023-04-24T13:53:01;4.82;;;2.80;;
46288;SDS011;63105;46.158;14.604;2023-04-24T13:55:26;6.10;;;3.63;;
46288;SDS011;63105;46.158;14.604;2023-04-24T13:57:52;4.93;;;2.92;;
46288;SDS011;63105;46.158;14.604;2023-04-24T14:00:20;5.63;;;3.05;;
46288;SDS011;63105;46.158;14.604;2023-04-24T14:02:45;4.82;;;2.95;;
46288;SDS011;63105;46.158;14.604;2023-04-24T14:05:12;6.00;;;3.30;;
46288;SDS011;63105;46.158;14.604;2023-04-24T14:07:39;6.05;;;2.80;;
46288;SDS011;63105;46.158;14.604;2023-04-24T14:10:04;5.88;;;3.20;;
46288;SDS011;63105;46.158;14.604;2023-04-24T14:12:29;6.45;;;2.78;;
46288;SDS011;63105;46.158;14.604;2023-04-24T14:14:55;6.35;;;2.95;;
46288;SDS011;63105;46.158;14.604;2023-04-24T14:17:20;6.05;;;3.10;;
46288;SDS011;63105;46.158;14.604;2023-04-24T14:19:45;5.47;;;2.80;;
46288;SDS011;63105;46.158;14.604;2023-04-24T14:22:10;3.90;;;2.20;;
46288;SDS011;63105;46.158;14.604;2023-04-24T14:24:36;3.97;;;1.80;;
46288;SDS011;63105;46.158;14.604;2023-04-24T14:27:01;3.90;;;2.10;;
46288;SDS011;63105;46.158;14.604;2023-04-24T14:29:26;4.35;;;2.63;;
46288;SDS011;63105;46.158;14.604;2023-04-24T14:31:51;3.90;;;2.40;;
46288;SDS011;63105;46.158;14.604;2023-04-24T14:34:17;5.07;;;2.40;;
46288;SDS011;63105;46.158;14.604;2023-04-24T14:36:42;3.20;;;1.95;;
46288;SDS011;63105;46.158;14.604;2023-04-24T14:39:07;3.95;;;2.13;;